sensor_id;sensor_type;location;lat;lon;timestamp;pressure;altitude;pressure_sealevel;temperature;humidity
42247;BME280;27913;42.722;23.268;2023-08-21T00:03:37;95356.63;;;24.28;55.03
42247;BME280;27913;42.722;23.268;2023-08-21T00:06:02;95275.69;;;23.77;54.53
42247;BME280;27913;42.722;23.268;2023-08-21T00:08:28;95244.47;;;23.60;54.66
42247;BME280;27913;42.722;23.268;2023-08-21T00:10:53;95275.94;;;23.75;54.52
42247;BME280;27913;42.722;23.268;2023-08-21T00:13:20;95219.97;;;23.36;55.27
42247;BME280;27913;42.722;23.268;2023-08-21T00:15:45;95356.91;;;24.21;55.23
42247;BME280;27913;42.722;23.268;2023-08-21T00:18:11;95302.53;;;23.82;55.43
42247;BME280;27913;42.722;23.268;2023-08-21T00:20:36;95351.75;;;24.09;55.50
42247;BME280;27913;42.722;23.268;2023-08-21T00:23:02;95308.16;;;23.81;55.18
42247;BME280;27913;42.722;23.268;2023-08-21T00:25:28;95273.47;;;23.63;55.16
42247;BME280;27913;42.722;23.268;2023-08-21T00:27:53;95346.09;;;24.10;55.86
42247;BME280;27913;42.722;23.268;2023-08-21T00:30:19;95348.50;;;24.07;55.42
42247;BME280;27913;42.722;23.268;2023-08-21T00:32:44;95349.84;;;24.04;56.04
42247;BME280;27913;42.722;23.268;2023-08-21T00:35:10;95344.44;;;23.99;55.43
42247;BME280;27913;42.722;23.268;2023-08-21T00:37:36;95362.22;;;24.05;55.52
42247;BME280;27913;42.722;23.268;2023-08-21T00:40:02;95308.09;;;23.65;55.47
42247;BME280;27913;42.722;23.268;2023-08-21T00:42:27;95352.22;;;23.95;55.66
42247;BME280;27913;42.722;23.268;2023-08-21T00:44:53;95306.22;;;23.65;55.85
42247;BME280;27913;42.722;23.268;2023-08-21T00:47:18;95363.22;;;23.94;56.12
42247;BME280;27913;42.722;23.268;2023-08-21T00:49:45;95367.00;;;23.93;56.07
42247;BME280;27913;42.722;23.268;2023-08-21T00:52:12;95311.84;;;23.59;55.55
42247;BME280;27913;42.722;23.268;2023-08-21T00:54:39;95281.13;;;23.34;55.95
42247;BME280;27913;42.722;23.268;2023-08-21T00:57:05;95359.19;;;23.81;56.20
42247;BME280;27913;42.722;23.268;2023-08-21T00:59:30;95277.81;;;23.16;56.51
42247;BME280;27913;42.722;23.268;2023-08-21T01:01:56;95360.22;;;23.74;57.23
42247;BME280;27913;42.722;23.268;2023-08-21T01:04:22;95301.78;;;23.33;57.88
42247;BME280;27913;42.722;23.268;2023-08-21T01:06:51;95365.28;;;23.71;57.80
42247;BME280;27913;42.722;23.268;2023-08-21T01:17:21;95299.06;;;23.23;58.41
42247;BME280;27913;42.722;23.268;2023-08-21T01:19:49;95283.44;;;23.14;58.23
42247;BME280;27913;42.722;23.268;2023-08-21T01:22:15;95369.31;;;23.68;57.76
42247;BME280;27913;42.722;23.268;2023-08-21T01:24:41;95369.59;;;23.67;57.45
42247;BME280;27913;42.722;23.268;2023-08-21T01:27:07;95296.78;;;22.99;58.68
42247;BME280;27913;42.722;23.268;2023-08-21T01:29:33;95313.66;;;22.94;60.07
42247;BME280;27913;42.722;23.268;2023-08-21T01:32:21;95365.97;;;23.02;61.06
42247;BME280;27913;42.722;23.268;2023-08-21T01:34:51;95293.06;;;22.34;61.80
42247;BME280;27913;42.722;23.268;2023-08-21T01:37:18;95326.13;;;22.45;62.40
42247;BME280;27913;42.722;23.268;2023-08-21T01:39:44;95235.09;;;21.62;62.92
42247;BME280;27913;42.722;23.268;2023-08-21T01:42:10;95318.56;;;22.09;63.55
42247;BME280;27913;42.722;23.268;2023-08-21T01:44:36;95369.59;;;22.25;63.98
42247;BME280;27913;42.722;23.268;2023-08-21T01:47:01;95372.41;;;22.13;64.58
42247;BME280;27913;42.722;23.268;2023-08-21T01:49:27;95371.66;;;22.17;64.64
42247;BME280;27913;42.722;23.268;2023-08-21T01:51:52;95317.31;;;21.89;64.53
42247;BME280;27913;42.722;23.268;2023-08-21T01:54:18;95340.13;;;21.97;64.77
42247;BME280;27913;42.722;23.268;2023-08-21T01:56:43;95363.38;;;22.19;64.95
42247;BME280;27913;42.722;23.268;2023-08-21T01:59:09;95231.28;;;21.30;65.06
42247;BME280;27913;42.722;23.268;2023-08-21T02:01:34;95368.44;;;22.15;65.15
42247;BME280;27913;42.722;23.268;2023-08-21T02:04:00;95361.91;;;22.06;65.41
42247;BME280;27913;42.722;23.268;2023-08-21T02:06:25;95356.28;;;21.80;65.95
42247;BME280;27913;42.722;23.268;2023-08-21T02:08:50;95343.19;;;21.61;66.40
42247;BME280;27913;42.722;23.268;2023-08-21T02:11:16;95331.59;;;21.55;66.58
42247;BME280;27913;42.722;23.268;2023-08-21T02:13:41;95361.78;;;21.73;67.00
42247;BME280;27913;42.722;23.268;2023-08-21T02:16:07;95373.00;;;21.70;67.19
42247;BME280;27913;42.722;23.268;2023-08-21T02:18:32;95375.94;;;21.51;67.32
42247;BME280;27913;42.722;23.268;2023-08-21T02:21:01;95301.16;;;20.94;67.80
42247;BME280;27913;42.722;23.268;2023-08-21T02:23:27;95369.69;;;21.23;68.54
42247;BME280;27913;42.722;23.268;2023-08-21T02:25:54;95367.44;;;21.15;68.91
42247;BME280;27913;42.722;23.268;2023-08-21T02:28:19;95243.50;;;20.30;68.89
42247;BME280;27913;42.722;23.268;2023-08-21T02:30:45;95369.22;;;21.09;69.32
42247;BME280;27913;42.722;23.268;2023-08-21T02:33:11;95360.41;;;21.08;69.16
42247;BME280;27913;42.722;23.268;2023-08-21T02:35:37;95356.69;;;21.09;69.03
42247;BME280;27913;42.722;23.268;2023-08-21T02:38:02;95364.44;;;21.11;69.28
42247;BME280;27913;42.722;23.268;2023-08-21T02:40:28;95363.94;;;21.14;68.62
42247;BME280;27913;42.722;23.268;2023-08-21T02:42:53;95206.31;;;20.06;69.00
42247;BME280;27913;42.722;23.268;2023-08-21T02:45:19;95358.34;;;21.16;69.11
42247;BME280;27913;42.722;23.268;2023-08-21T02:47:45;95150.25;;;19.88;68.89
42247;BME280;27913;42.722;23.268;2023-08-21T02:50:10;95358.16;;;21.40;68.44
42247;BME280;27913;42.722;23.268;2023-08-21T02:52:36;95363.38;;;21.29;68.51
42247;BME280;27913;42.722;23.268;2023-08-21T02:55:03;95210.09;;;20.27;68.85
42247;BME280;27913;42.722;23.268;2023-08-21T02:57:29;95361.22;;;21.09;69.13
42247;BME280;27913;42.722;23.268;2023-08-21T02:59:55;95259.63;;;20.52;69.49
42247;BME280;27913;42.722;23.268;2023-08-21T03:02:21;95364.53;;;21.16;69.07
42247;BME280;27913;42.722;23.268;2023-08-21T03:04:47;95308.28;;;20.71;69.37
42247;BME280;27913;42.722;23.268;2023-08-21T03:07:13;95366.91;;;20.95;69.60
42247;BME280;27913;42.722;23.268;2023-08-21T03:09:39;95338.28;;;20.61;70.23
42247;BME280;27913;42.722;23.268;2023-08-21T03:12:06;95381.28;;;20.77;70.32
42247;BME280;27913;42.722;23.268;2023-08-21T03:14:32;95184.69;;;19.43;70.58
42247;BME280;27913;42.722;23.268;2023-08-21T03:16:57;95304.81;;;20.07;71.17
42247;BME280;27913;42.722;23.268;2023-08-21T03:19:23;95306.47;;;19.96;71.49
42247;BME280;27913;42.722;23.268;2023-08-21T03:21:49;95379.16;;;20.45;71.73
42247;BME280;27913;42.722;23.268;2023-08-21T03:24:14;95307.38;;;20.02;71.31
42247;BME280;27913;42.722;23.268;2023-08-21T03:26:40;95246.34;;;19.76;70.50
42247;BME280;27913;42.722;23.268;2023-08-21T03:29:05;95388.50;;;20.76;70.40
42247;BME280;27913;42.722;23.268;2023-08-21T03:31:31;95391.34;;;20.87;69.95
42247;BME280;27913;42.722;23.268;2023-08-21T03:33:57;95374.16;;;20.83;69.97
42247;BME280;27913;42.722;23.268;2023-08-21T03:36:23;95258.94;;;20.10;69.24
42247;BME280;27913;42.722;23.268;2023-08-21T03:38:59;95305.50;;;20.49;69.43
42247;BME280;27913;42.722;23.268;2023-08-21T03:41:25;95305.97;;;20.63;68.69
42247;BME280;27913;42.722;23.268;2023-08-21T03:43:51;95389.97;;;21.19;68.09
42247;BME280;27913;42.722;23.268;2023-08-21T03:46:16;95379.09;;;21.26;67.77
42247;BME280;27913;42.722;23.268;2023-08-21T03:48:42;95383.38;;;21.27;67.34
42247;BME280;27913;42.722;23.268;2023-08-21T03:51:07;95256.47;;;20.55;67.41
42247;BME280;27913;42.722;23.268;2023-08-21T03:53:33;95381.75;;;21.43;67.03
42247;BME280;27913;42.722;23.268;2023-08-21T03:55:58;95357.28;;;21.34;66.88
42247;BME280;27913;42.722;23.268;2023-08-21T03:58:24;95191.56;;;20.37;66.56
42247;BME280;27913;42.722;23.268;2023-08-21T04:00:51;95299.00;;;21.14;66.18
42247;BME280;27913;42.722;23.268;2023-08-21T04:03:16;95268.56;;;20.97;66.18
42247;BME280;27913;42.722;23.268;2023-08-21T04:05:41;95290.28;;;21.23;65.69
42247;BME280;27913;42.722;23.268;2023-08-21T04:08:07;95362.56;;;21.73;65.05
42247;BME280;27913;42.722;23.268;2023-08-21T04:10:33;95351.88;;;21.73;64.93
42247;BME280;27913;42.722;23.268;2023-08-21T04:12:58;95393.91;;;21.95;65.12
42247;BME280;27913;42.722;23.268;2023-08-21T04:15:24;95335.44;;;21.42;66.29
42247;BME280;27913;42.722;23.268;2023-08-21T04:17:50;95304.56;;;21.12;65.72
42247;BME280;27913;42.722;23.268;2023-08-21T04:20:15;95406.59;;;21.60;66.39
42247;BME280;27913;42.722;23.268;2023-08-21T04:22:41;95349.94;;;21.24;66.23
42247;BME280;27913;42.722;23.268;2023-08-21T04:25:06;95356.25;;;21.18;66.61
42247;BME280;27913;42.722;23.268;2023-08-21T04:27:32;95405.06;;;21.47;66.95
42247;BME280;27913;42.722;23.268;2023-08-21T04:29:58;95251.75;;;20.62;67.43
42247;BME280;27913;42.722;23.268;2023-08-21T04:32:24;95403.41;;;21.64;66.76
42247;BME280;27913;42.722;23.268;2023-08-21T04:34:50;95402.78;;;21.56;66.57
42247;BME280;27913;42.722;23.268;2023-08-21T04:37:15;95410.59;;;21.41;66.76
42247;BME280;27913;42.722;23.268;2023-08-21T04:39:41;95407.28;;;21.33;67.43
42247;BME280;27913;42.722;23.268;2023-08-21T04:42:06;95359.69;;;20.96;67.57
42247;BME280;27913;42.722;23.268;2023-08-21T04:44:32;95412.91;;;21.15;68.46
42247;BME280;27913;42.722;23.268;2023-08-21T04:46:57;95413.81;;;21.03;69.09
42247;BME280;27913;42.722;23.268;2023-08-21T04:49:23;95418.34;;;20.73;70.08
42247;BME280;27913;42.722;23.268;2023-08-21T04:51:48;95269.13;;;19.67;70.48
42247;BME280;27913;42.722;23.268;2023-08-21T04:54:13;95421.75;;;20.51;71.81
42247;BME280;27913;42.722;23.268;2023-08-21T04:56:39;95352.41;;;19.98;71.98
42247;BME280;27913;42.722;23.268;2023-08-21T04:59:04;95426.19;;;20.46;72.21
42247;BME280;27913;42.722;23.268;2023-08-21T05:01:30;95231.81;;;19.26;71.79
42247;BME280;27913;42.722;23.268;2023-08-21T05:03:55;95384.91;;;19.95;72.87
42247;BME280;27913;42.722;23.268;2023-08-21T05:06:21;95432.56;;;20.15;73.67
42247;BME280;27913;42.722;23.268;2023-08-21T05:08:46;95331.78;;;19.52;73.45
42247;BME280;27913;42.722;23.268;2023-08-21T05:11:12;95363.41;;;19.73;74.02
42247;BME280;27913;42.722;23.268;2023-08-21T05:13:37;95436.09;;;20.33;73.66
42247;BME280;27913;42.722;23.268;2023-08-21T05:16:03;95429.47;;;20.36;72.76
42247;BME280;27913;42.722;23.268;2023-08-21T05:18:28;95444.53;;;20.42;72.98
42247;BME280;27913;42.722;23.268;2023-08-21T05:20:55;95445.59;;;20.41;73.12
42247;BME280;27913;42.722;23.268;2023-08-21T05:23:21;95438.59;;;20.52;73.29
42247;BME280;27913;42.722;23.268;2023-08-21T05:25:48;95445.41;;;20.77;73.41
42247;BME280;27913;42.722;23.268;2023-08-21T05:28:14;95436.16;;;20.97;70.83
42247;BME280;27913;42.722;23.268;2023-08-21T05:30:40;95439.72;;;21.03;69.96
42247;BME280;27913;42.722;23.268;2023-08-21T05:33:06;95358.94;;;20.66;69.77
42247;BME280;27913;42.722;23.268;2023-08-21T05:35:35;95439.22;;;21.23;69.36
42247;BME280;27913;42.722;23.268;2023-08-21T05:38:04;95384.31;;;21.15;69.53
42247;BME280;27913;42.722;23.268;2023-08-21T05:40:29;95410.63;;;21.63;69.33
42247;BME280;27913;42.722;23.268;2023-08-21T05:42:55;95425.03;;;22.02;68.27
42247;BME280;27913;42.722;23.268;2023-08-21T05:45:20;95426.91;;;22.24;67.17
42247;BME280;27913;42.722;23.268;2023-08-21T05:47:46;95383.22;;;22.23;65.53
42247;BME280;27913;42.722;23.268;2023-08-21T05:50:11;95415.66;;;22.54;64.39
42247;BME280;27913;42.722;23.268;2023-08-21T05:52:37;95249.03;;;21.64;63.84
42247;BME280;27913;42.722;23.268;2023-08-21T05:55:03;95345.91;;;22.44;64.12
42247;BME280;27913;42.722;23.268;2023-08-21T05:57:29;95423.66;;;23.04;63.13
42247;BME280;27913;42.722;23.268;2023-08-21T05:59:55;95381.38;;;22.84;63.45
42247;BME280;27913;42.722;23.268;2023-08-21T06:02:20;95422.97;;;23.25;63.04
42247;BME280;27913;42.722;23.268;2023-08-21T06:04:46;95293.78;;;22.57;62.71
42247;BME280;27913;42.722;23.268;2023-08-21T06:07:11;95331.34;;;22.95;61.72
42247;BME280;27913;42.722;23.268;2023-08-21T06:09:39;95294.53;;;22.80;61.47
42247;BME280;27913;42.722;23.268;2023-08-21T06:12:05;95426.94;;;23.50;61.33
42247;BME280;27913;42.722;23.268;2023-08-21T06:14:31;95352.34;;;23.09;60.72
42247;BME280;27913;42.722;23.268;2023-08-21T06:17:02;95376.63;;;23.29;61.07
42247;BME280;27913;42.722;23.268;2023-08-21T06:19:28;95322.03;;;23.08;60.82
42247;BME280;27913;42.722;23.268;2023-08-21T06:21:56;95393.69;;;23.56;59.93
42247;BME280;27913;42.722;23.268;2023-08-21T06:24:22;95424.66;;;23.80;60.06
42247;BME280;27913;42.722;23.268;2023-08-21T06:26:48;95341.13;;;23.17;59.96
42247;BME280;27913;42.722;23.268;2023-08-21T06:29:14;95347.06;;;23.19;60.03
42247;BME280;27913;42.722;23.268;2023-08-21T06:31:39;95335.19;;;23.10;60.69
42247;BME280;27913;42.722;23.268;2023-08-21T06:34:05;95426.00;;;23.72;60.73
42247;BME280;27913;42.722;23.268;2023-08-21T06:36:30;95335.50;;;23.19;59.95
42247;BME280;27913;42.722;23.268;2023-08-21T06:38:56;95439.75;;;23.86;60.04
42247;BME280;27913;42.722;23.268;2023-08-21T06:41:21;95312.66;;;23.11;60.30
42247;BME280;27913;42.722;23.268;2023-08-21T06:43:47;95283.09;;;23.00;60.29
42247;BME280;27913;42.722;23.268;2023-08-21T06:46:13;95369.56;;;23.61;59.97
42247;BME280;27913;42.722;23.268;2023-08-21T06:48:40;95376.31;;;23.74;58.76
42247;BME280;27913;42.722;23.268;2023-08-21T06:51:11;95432.63;;;24.18;59.36
42247;BME280;27913;42.722;23.268;2023-08-21T06:53:37;95371.50;;;23.76;58.61
42247;BME280;27913;42.722;23.268;2023-08-21T06:56:02;95449.59;;;24.29;57.60
42247;BME280;27913;42.722;23.268;2023-08-21T06:58:30;95442.91;;;24.36;58.08
42247;BME280;27913;42.722;23.268;2023-08-21T07:00:55;95368.34;;;24.00;58.22
42247;BME280;27913;42.722;23.268;2023-08-21T07:03:22;95298.16;;;23.65;55.88
42247;BME280;27913;42.722;23.268;2023-08-21T07:05:57;95438.41;;;24.73;56.27
42247;BME280;27913;42.722;23.268;2023-08-21T07:08:24;95431.94;;;24.85;55.42
42247;BME280;27913;42.722;23.268;2023-08-21T07:10:49;95430.94;;;24.96;54.88
42247;BME280;27913;42.722;23.268;2023-08-21T07:13:15;95236.47;;;23.81;54.75
42247;BME280;27913;42.722;23.268;2023-08-21T07:15:41;95373.06;;;24.89;53.96
42247;BME280;27913;42.722;23.268;2023-08-21T07:18:07;95418.78;;;25.25;53.71
42247;BME280;27913;42.722;23.268;2023-08-21T07:20:33;95421.47;;;25.36;54.35
42247;BME280;27913;42.722;23.268;2023-08-21T07:22:59;95421.69;;;25.50;53.16
42247;BME280;27913;42.722;23.268;2023-08-21T07:25:24;95391.63;;;25.37;52.67
42247;BME280;27913;42.722;23.268;2023-08-21T07:27:51;95399.66;;;25.53;52.74
42247;BME280;27913;42.722;23.268;2023-08-21T07:30:18;95419.25;;;25.74;52.69
42247;BME280;27913;42.722;23.268;2023-08-21T07:32:45;95423.56;;;25.80;52.60
42247;BME280;27913;42.722;23.268;2023-08-21T07:35:10;95235.97;;;24.68;52.64
42247;BME280;27913;42.722;23.268;2023-08-21T07:37:36;95365.97;;;25.66;50.09
42247;BME280;27913;42.722;23.268;2023-08-21T07:40:04;95376.41;;;25.83;51.53
42247;BME280;27913;42.722;23.268;2023-08-21T07:42:30;95419.63;;;26.13;51.16
42247;BME280;27913;42.722;23.268;2023-08-21T07:44:55;95419.88;;;26.22;50.69
42247;BME280;27913;42.722;23.268;2023-08-21T07:47:21;95372.81;;;26.03;50.86
42247;BME280;27913;42.722;23.268;2023-08-21T07:49:46;95379.75;;;26.15;50.76
42247;BME280;27913;42.722;23.268;2023-08-21T07:52:12;95356.34;;;26.10;50.26
42247;BME280;27913;42.722;23.268;2023-08-21T07:54:38;95414.59;;;26.57;49.70
42247;BME280;27913;42.722;23.268;2023-08-21T07:57:03;95264.69;;;25.75;48.69
42247;BME280;27913;42.722;23.268;2023-08-21T07:59:32;95328.00;;;26.18;48.84
42247;BME280;27913;42.722;23.268;2023-08-21T08:01:57;95405.91;;;26.65;48.28
42247;BME280;27913;42.722;23.268;2023-08-21T08:04:25;95404.72;;;26.76;48.33
42247;BME280;27913;42.722;23.268;2023-08-21T08:06:51;95401.41;;;26.90;48.54
42247;BME280;27913;42.722;23.268;2023-08-21T08:09:16;95267.44;;;26.10;47.77
42247;BME280;27913;42.722;23.268;2023-08-21T08:11:41;95391.13;;;26.92;48.04
42247;BME280;27913;42.722;23.268;2023-08-21T08:14:07;95396.66;;;27.11;48.10
42247;BME280;27913;42.722;23.268;2023-08-21T08:16:32;95390.91;;;27.23;47.74
42247;BME280;27913;42.722;23.268;2023-08-21T08:18:58;95258.25;;;26.51;47.07
42247;BME280;27913;42.722;23.268;2023-08-21T08:21:24;95314.69;;;27.02;47.00
42247;BME280;27913;42.722;23.268;2023-08-21T08:23:52;95246.81;;;26.65;46.78
42247;BME280;27913;42.722;23.268;2023-08-21T08:26:17;95241.59;;;26.74;46.47
42247;BME280;27913;42.722;23.268;2023-08-21T08:28:43;95309.06;;;27.28;46.11
42247;BME280;27913;42.722;23.268;2023-08-21T08:31:18;95225.38;;;26.79;46.28
42247;BME280;27913;42.722;23.268;2023-08-21T08:33:44;95394.72;;;27.96;46.04
42247;BME280;27913;42.722;23.268;2023-08-21T08:36:10;95277.91;;;27.36;45.57
42247;BME280;27913;42.722;23.268;2023-08-21T08:38:35;95319.63;;;27.73;45.20
42247;BME280;27913;42.722;23.268;2023-08-21T08:41:07;95383.56;;;28.22;44.42
42247;BME280;27913;42.722;23.268;2023-08-21T08:43:40;95379.47;;;28.25;44.39
42247;BME280;27913;42.722;23.268;2023-08-21T08:46:09;95303.88;;;27.81;44.43
42247;BME280;27913;42.722;23.268;2023-08-21T08:48:35;95378.59;;;28.29;44.00
42247;BME280;27913;42.722;23.268;2023-08-21T08:51:02;95373.19;;;28.29;43.59
42247;BME280;27913;42.722;23.268;2023-08-21T08:53:31;95281.03;;;27.68;43.78
42247;BME280;27913;42.722;23.268;2023-08-21T08:55:57;95324.69;;;28.00;43.55
42247;BME280;27913;42.722;23.268;2023-08-21T08:58:23;95297.50;;;27.91;43.58
42247;BME280;27913;42.722;23.268;2023-08-21T09:00:49;95356.38;;;28.32;42.86
42247;BME280;27913;42.722;23.268;2023-08-21T09:03:15;95301.03;;;28.10;43.49
42247;BME280;27913;42.722;23.268;2023-08-21T09:06:01;95369.56;;;28.58;43.30
42247;BME280;27913;42.722;23.268;2023-08-21T09:08:26;95295.47;;;28.21;42.97
42247;BME280;27913;42.722;23.268;2023-08-21T09:10:53;95316.06;;;28.36;42.69
42247;BME280;27913;42.722;23.268;2023-08-21T09:13:19;95373.41;;;28.72;42.76
42247;BME280;27913;42.722;23.268;2023-08-21T09:15:47;95365.28;;;28.72;40.86
42247;BME280;27913;42.722;23.268;2023-08-21T09:18:13;95198.59;;;27.76;40.67
42247;BME280;27913;42.722;23.268;2023-08-21T09:20:40;95276.38;;;28.31;41.29
42247;BME280;27913;42.722;23.268;2023-08-21T09:23:06;95357.03;;;28.96;40.51
42247;BME280;27913;42.722;23.268;2023-08-21T09:25:37;95193.59;;;28.02;40.96
42247;BME280;27913;42.722;23.268;2023-08-21T09:28:09;95349.63;;;29.21;40.62
42247;BME280;27913;42.722;23.268;2023-08-21T09:30:52;95328.47;;;29.23;40.05
42247;BME280;27913;42.722;23.268;2023-08-21T09:33:19;95312.31;;;29.18;39.25
42247;BME280;27913;42.722;23.268;2023-08-21T09:35:47;95237.66;;;28.69;39.00
42247;BME280;27913;42.722;23.268;2023-08-21T09:38:13;95267.63;;;28.87;39.01
42247;BME280;27913;42.722;23.268;2023-08-21T09:40:50;95254.81;;;28.93;38.87
42247;BME280;27913;42.722;23.268;2023-08-21T09:43:20;95327.47;;;29.47;39.08
42247;BME280;27913;42.722;23.268;2023-08-21T09:45:50;95289.25;;;29.21;39.51
42247;BME280;27913;42.722;23.268;2023-08-21T09:48:25;95285.84;;;29.43;37.42
42247;BME280;27913;42.722;23.268;2023-08-21T09:50:54;95320.56;;;29.69;37.58
42247;BME280;27913;42.722;23.268;2023-08-21T09:53:22;95249.66;;;29.39;37.59
42247;BME280;27913;42.722;23.268;2023-08-21T09:55:53;95291.75;;;29.73;37.31
42247;BME280;27913;42.722;23.268;2023-08-21T09:58:19;95233.28;;;29.44;36.39
42247;BME280;27913;42.722;23.268;2023-08-21T10:00:45;95242.91;;;29.64;36.10
42247;BME280;27913;42.722;23.268;2023-08-21T10:03:18;95272.16;;;29.90;35.64
42247;BME280;27913;42.722;23.268;2023-08-21T10:05:43;95321.44;;;30.30;36.07
42247;BME280;27913;42.722;23.268;2023-08-21T10:08:10;95250.25;;;30.01;35.34
42247;BME280;27913;42.722;23.268;2023-08-21T10:10:39;95280.47;;;30.31;35.03
42247;BME280;27913;42.722;23.268;2023-08-21T10:13:05;95293.25;;;30.54;34.71
42247;BME280;27913;42.722;23.268;2023-08-21T10:15:55;95227.78;;;30.23;34.91
42247;BME280;27913;42.722;23.268;2023-08-21T10:18:25;95311.28;;;30.81;34.61
42247;BME280;27913;42.722;23.268;2023-08-21T10:21:16;95297.91;;;30.85;34.25
42247;BME280;27913;42.722;23.268;2023-08-21T10:23:44;95303.03;;;30.86;34.24
42247;BME280;27913;42.722;23.268;2023-08-21T10:26:11;95262.97;;;30.60;34.85
42247;BME280;27913;42.722;23.268;2023-08-21T10:29:00;95290.94;;;30.93;33.78
42247;BME280;27913;42.722;23.268;2023-08-21T10:31:37;95210.81;;;30.41;33.48
42247;BME280;27913;42.722;23.268;2023-08-21T10:34:11;95286.81;;;30.95;33.83
42247;BME280;27913;42.722;23.268;2023-08-21T10:39:13;95243.34;;;30.86;33.51
42247;BME280;27913;42.722;23.268;2023-08-21T10:42:11;95276.97;;;31.17;32.79
42247;BME280;27913;42.722;23.268;2023-08-21T10:47:31;95224.53;;;30.99;32.81
42247;BME280;27913;42.722;23.268;2023-08-21T10:49:59;95273.88;;;31.42;33.20
42247;BME280;27913;42.722;23.268;2023-08-21T10:52:28;95273.47;;;31.57;32.70
42247;BME280;27913;42.722;23.268;2023-08-21T10:54:55;95265.47;;;31.70;32.51
42247;BME280;27913;42.722;23.268;2023-08-21T10:57:28;95264.06;;;31.81;31.98
42247;BME280;27913;42.722;23.268;2023-08-21T10:59:59;95264.88;;;32.00;31.05
42247;BME280;27913;42.722;23.268;2023-08-21T11:02:25;95267.94;;;32.16;30.63
42247;BME280;27913;42.722;23.268;2023-08-21T11:04:51;95260.25;;;32.18;30.47
42247;BME280;27913;42.722;23.268;2023-08-21T11:07:18;95251.47;;;32.12;30.65
42247;BME280;27913;42.722;23.268;2023-08-21T11:09:44;95178.50;;;31.97;30.26
42247;BME280;27913;42.722;23.268;2023-08-21T11:12:12;95161.91;;;31.98;29.04
42247;BME280;27913;42.722;23.268;2023-08-21T11:14:39;95211.94;;;32.24;28.95
42247;BME280;27913;42.722;23.268;2023-08-21T11:17:05;95253.66;;;32.46;29.37
42247;BME280;27913;42.722;23.268;2023-08-21T11:19:32;95251.28;;;32.44;29.12
42247;BME280;27913;42.722;23.268;2023-08-21T11:21:58;95252.38;;;32.52;29.10
42247;BME280;27913;42.722;23.268;2023-08-21T11:24:48;95144.97;;;31.84;29.15
42247;BME280;27913;42.722;23.268;2023-08-21T11:27:16;95214.03;;;32.27;28.82
42247;BME280;27913;42.722;23.268;2023-08-21T11:29:46;95251.25;;;32.53;28.90
42247;BME280;27913;42.722;23.268;2023-08-21T11:32:30;95244.25;;;32.43;28.81
42247;BME280;27913;42.722;23.268;2023-08-21T11:34:57;95101.50;;;31.48;28.62
42247;BME280;27913;42.722;23.268;2023-08-21T11:37:26;95204.72;;;32.37;27.87
42247;BME280;27913;42.722;23.268;2023-08-21T11:40:06;95058.53;;;31.50;28.22
42247;BME280;27913;42.722;23.268;2023-08-21T11:42:33;95198.28;;;32.50;27.92
42247;BME280;27913;42.722;23.268;2023-08-21T11:45:00;95228.31;;;32.81;28.85
42247;BME280;27913;42.722;23.268;2023-08-21T11:47:34;95159.06;;;32.51;30.03
42247;BME280;27913;42.722;23.268;2023-08-21T11:50:07;95223.50;;;32.86;30.99
42247;BME280;27913;42.722;23.268;2023-08-21T11:52:33;95240.19;;;32.67;30.96
42247;BME280;27913;42.722;23.268;2023-08-21T11:55:01;95231.41;;;32.61;33.73
42247;BME280;27913;42.722;23.268;2023-08-21T11:57:26;95226.59;;;32.67;32.95
42247;BME280;27913;42.722;23.268;2023-08-21T11:59:54;95057.56;;;31.55;33.21
42247;BME280;27913;42.722;23.268;2023-08-21T12:02:27;95230.31;;;32.62;33.91
42247;BME280;27913;42.722;23.268;2023-08-21T12:05:02;95213.19;;;32.44;33.57
42247;BME280;27913;42.722;23.268;2023-08-21T12:07:28;95188.38;;;32.37;35.22
42247;BME280;27913;42.722;23.268;2023-08-21T12:09:54;95191.75;;;32.34;33.65
42247;BME280;27913;42.722;23.268;2023-08-21T12:12:19;95143.97;;;32.15;32.74
42247;BME280;27913;42.722;23.268;2023-08-21T12:14:46;95161.38;;;32.23;31.39
42247;BME280;27913;42.722;23.268;2023-08-21T12:17:11;95218.41;;;32.76;32.71
42247;BME280;27913;42.722;23.268;2023-08-21T12:19:37;95208.19;;;32.73;32.72
42247;BME280;27913;42.722;23.268;2023-08-21T12:22:02;95205.97;;;32.66;29.23
42247;BME280;27913;42.722;23.268;2023-08-21T12:24:28;95207.22;;;32.69;30.24
42247;BME280;27913;42.722;23.268;2023-08-21T12:26:54;95219.06;;;32.73;30.23
42247;BME280;27913;42.722;23.268;2023-08-21T12:29:19;95218.84;;;32.87;31.14
42247;BME280;27913;42.722;23.268;2023-08-21T12:31:45;95098.09;;;31.96;29.66
42247;BME280;27913;42.722;23.268;2023-08-21T12:34:10;95070.75;;;32.01;32.11
42247;BME280;27913;42.722;23.268;2023-08-21T12:36:36;95164.59;;;32.82;30.25
42247;BME280;27913;42.722;23.268;2023-08-21T12:39:03;95155.88;;;32.97;31.85
42247;BME280;27913;42.722;23.268;2023-08-21T12:41:29;95214.16;;;33.35;30.23
42247;BME280;27913;42.722;23.268;2023-08-21T12:43:54;95196.75;;;33.28;29.37
42247;BME280;27913;42.722;23.268;2023-08-21T12:46:20;95151.56;;;32.96;29.48
42247;BME280;27913;42.722;23.268;2023-08-21T12:48:45;95189.16;;;33.03;29.80
42247;BME280;27913;42.722;23.268;2023-08-21T12:51:11;95136.09;;;32.79;28.48
42247;BME280;27913;42.722;23.268;2023-08-21T12:53:36;95135.66;;;32.98;28.39
42247;BME280;27913;42.722;23.268;2023-08-21T12:56:01;95149.53;;;33.14;28.07
42247;BME280;27913;42.722;23.268;2023-08-21T12:58:29;95151.50;;;33.05;28.75
42247;BME280;27913;42.722;23.268;2023-08-21T13:00:54;95140.56;;;33.14;28.19
42247;BME280;27913;42.722;23.268;2023-08-21T13:03:20;95186.97;;;33.48;28.73
42247;BME280;27913;42.722;23.268;2023-08-21T13:05:45;95175.34;;;33.60;27.91